Time;durP1;ratioP1;P1;durP2;ratioP2;P2;SDS_P1;SDS_P2;PMS_P1;PMS_P2;Temp;Humidity;BMP_temperature;BMP_pressure;BME280_temperature;BME280_humidity;BME280_pressure;Samples;Min_cycle;Max_cycle;Signal;HPM_P1;HPM_P2
2022/08/13 00:02:24;;;;;;;4.90;2.83;;;;;;;21.73;44.71;101515.03;5192848;28;20046;-69
2022/08/13 00:05:01;;;;;;;3.37;2.40;;;;;;;21.69;44.80;101509.25;5194776;28;20037;-69
2022/08/13 00:07:32;;;;;;;10.15;2.40;;;;;;;21.52;45.33;101510.47;5191703;28;20536;-71
2022/08/13 00:10:10;;;;;;;5.97;2.90;;;;;;;21.55;45.33;101508.25;5192174;28;20117;-68
2022/08/13 00:12:57;;;;;;;4.05;2.53;;;;;;;21.44;46.21;101514.06;5193502;28;20044;-72
2022/08/13 00:15:39;;;;;;;5.10;2.70;;;;;;;21.60;45.12;101511.19;5191368;28;20052;-69
2022/08/13 00:18:15;;;;;;;5.03;2.35;;;;;;;21.41;45.75;101505.63;5191485;28;20034;-69
2022/08/13 00:20:51;;;;;;;5.28;2.70;;;;;;;21.55;44.43;101502.91;5190904;28;20065;-70
2022/08/13 00:23:25;;;;;;;4.30;2.42;;;;;;;21.47;44.69;101507.53;5188207;28;20039;-68
2022/08/13 00:25:58;;;;;;;5.55;2.75;;;;;;;21.38;45.26;101496.97;5193048;28;20033;-70
2022/08/13 00:28:29;;;;;;;5.10;2.67;;;;;;;21.43;44.99;101512.41;5189733;28;20092;-69
2022/08/13 00:31:00;;;;;;;5.20;2.40;;;;;;;21.36;44.96;101504.31;5193443;28;20436;-68
2022/08/13 00:33:33;;;;;;;4.57;2.83;;;;;;;21.35;45.26;101508.00;5194131;28;20069;-68
2022/08/13 00:36:05;;;;;;;;;;;;;;;22.10;42.34;101509.50;5192515;28;20505;-68
2022/08/13 00:38:36;;;;;;;5.22;2.80;;;;;;;21.35;45.52;101517.81;5192571;28;19917;-73
2022/08/13 00:41:13;;;;;;;4.77;2.80;;;;;;;21.24;45.77;101513.75;5191217;28;20034;-71
2022/08/13 00:43:44;;;;;;;5.82;2.88;;;;;;;21.17;46.20;101504.00;5191898;28;20030;-69
2022/08/13 00:46:18;;;;;;;7.57;2.80;;;;;;;21.18;46.62;101513.69;5194564;28;20080;-68
2022/08/13 00:48:49;;;;;;;9.27;3.00;;;;;;;21.10;46.19;101510.09;5194046;28;20054;-69
2022/08/13 00:51:23;;;;;;;5.03;2.70;;;;;;;21.03;47.18;101513.66;5191405;28;20072;-68
2022/08/13 00:53:54;;;;;;;5.22;2.95;;;;;;;20.91;47.51;101507.97;5190228;28;20077;-68
2022/08/13 00:56:26;;;;;;;3.77;2.60;;;;;;;20.92;47.66;101514.94;5191553;28;20030;-68
2022/08/13 00:59:00;;;;;;;5.67;2.67;;;;;;;20.84;48.00;101518.50;5195181;28;20112;-68
2022/08/13 01:01:31;;;;;;;4.82;2.47;;;;;;;20.69;48.35;101501.69;5192804;28;20038;-68
2022/08/13 01:04:03;;;;;;;4.23;2.93;;;;;;;20.71;49.34;101512.13;5191011;28;20106;-69
2022/08/13 01:06:35;;;;;;;5.45;2.90;;;;;;;20.64;49.83;101518.16;5194024;28;20025;-69
2022/08/13 01:09:08;;;;;;;5.77;2.87;;;;;;;20.60;49.98;101521.38;5194297;28;20030;-70
2022/08/13 01:11:40;;;;;;;4.72;3.15;;;;;;;20.46;50.65;101511.50;5190920;28;20026;-69
2022/08/13 01:14:13;;;;;;;6.20;2.75;;;;;;;20.48;50.68;101523.59;5190096;28;20037;-68
2022/08/13 01:16:44;;;;;;;3.53;2.30;;;;;;;20.51;50.15;101517.16;5193814;28;20477;-68
2022/08/13 01:19:16;;;;;;;5.87;3.13;;;;;;;20.42;50.66;101511.84;5189801;28;20037;-68
2022/08/13 01:21:50;;;;;;;5.10;2.83;;;;;;;20.47;50.95;101518.47;5190956;28;20496;-69
2022/08/13 01:24:22;;;;;;;6.70;3.20;;;;;;;20.32;51.70;101505.94;5191927;28;20042;-70
2022/08/13 01:26:53;;;;;;;8.10;2.93;;;;;;;20.31;51.99;101516.78;5192195;28;20564;-70
2022/08/13 01:29:25;;;;;;;5.67;3.50;;;;;;;20.24;51.94;101508.66;5192350;28;20477;-68
2022/08/13 01:31:56;;;;;;;5.80;3.20;;;;;;;20.21;52.33;101513.50;5191670;28;20072;-71
2022/08/13 01:34:31;;;;;;;4.85;3.00;;;;;;;20.25;52.08;101522.78;5191576;28;20351;-68
2022/08/13 01:37:02;;;;;;;7.07;3.30;;;;;;;20.17;51.58;101524.50;5180111;28;20034;-68
2022/08/13 01:39:33;;;;;;;4.63;3.13;;;;;;;20.23;51.52;101527.44;5189964;28;20089;-70
2022/08/13 01:42:20;;;;;;;3.93;2.73;;;;;;;20.26;51.51;101527.09;5193218;28;20037;-68
2022/08/13 01:44:51;;;;;;;11.65;3.47;;;;;;;20.08;52.28;101522.91;5191189;28;20244;-68
2022/08/13 01:50:29;;;;;;;6.68;2.80;;;;;;;20.00;52.99;101516.78;5193405;28;20712;-68
2022/08/13 01:53:07;;;;;;;5.45;3.10;;;;;;;20.05;53.11;101512.63;5189346;28;20084;-68
2022/08/13 01:55:48;;;;;;;4.35;3.05;;;;;;;20.06;52.59;101510.78;5193491;28;20481;-68
2022/08/13 01:58:23;;;;;;;5.25;3.00;;;;;;;19.87;53.86;101514.72;5191712;28;20041;-68
2022/08/13 02:00:57;;;;;;;5.40;3.17;;;;;;;19.90;52.52;101517.84;5188486;28;20049;-68
2022/08/13 02:03:30;;;;;;;7.35;2.83;;;;;;;19.82;53.50;101517.09;5187592;28;20464;-68
2022/08/13 02:06:01;;;;;;;10.75;3.33;;;;;;;19.78;53.76;101513.94;5191530;28;20030;-68
2022/08/13 02:08:36;;;;;;;4.17;2.90;;;;;;;19.83;53.65;101511.56;5193492;28;20500;-68
2022/08/13 02:11:08;;;;;;;4.20;3.05;;;;;;;19.67;54.38;101493.88;5191992;28;20407;-69
2022/08/13 02:13:39;;;;;;;4.47;3.30;;;;;;;19.80;53.50;101516.41;5189961;28;20030;-69
2022/08/13 02:16:11;;;;;;;6.37;3.37;;;;;;;19.68;54.62;101514.13;5189905;28;20029;-68
2022/08/13 02:18:43;;;;;;;7.17;3.40;;;;;;;19.67;54.52;101517.81;5193177;28;20018;-69
2022/08/13 02:21:15;;;;;;;4.50;3.47;;;;;;;19.64;54.33;101520.00;5191319;28;20030;-68
2022/08/13 02:23:53;;;;;;;6.63;3.23;;;;;;;19.71;54.69;101510.31;5188326;28;20497;-70
2022/08/13 02:26:27;;;;;;;7.10;3.63;;;;;;;19.52;55.83;101516.84;5192496;28;20061;-68
2022/08/13 02:29:03;;;;;;;6.60;3.28;;;;;;;19.51;55.96;101520.53;5188970;28;20845;-68
2022/08/13 02:31:35;;;;;;;4.35;3.03;;;;;;;19.49;55.19;101517.19;5191012;28;20480;-68
2022/08/13 02:34:06;;;;;;;8.68;3.33;;;;;;;19.47;55.63;101511.19;5187715;28;20069;-68
2022/08/13 02:36:40;;;;;;;7.40;3.30;;;;;;;19.40;56.12;101511.09;5192634;28;20105;-72
2022/08/13 02:39:11;;;;;;;6.38;3.40;;;;;;;19.32;57.00;101511.13;5187687;28;20081;-68
2022/08/13 02:41:43;;;;;;;7.37;3.63;;;;;;;19.41;55.75;101509.25;5189686;28;20030;-68
2022/08/13 02:44:16;;;;;;;7.17;3.47;;;;;;;19.33;56.88;101515.44;5189757;28;20029;-69
2022/08/13 02:46:49;;;;;;;6.07;3.70;;;;;;;19.32;56.24;101512.91;5188061;28;20523;-68
2022/08/13 02:49:21;;;;;;;5.47;3.60;;;;;;;19.29;56.46;101510.63;5191413;28;20497;-71
2022/08/13 02:51:54;;;;;;;5.47;3.20;;;;;;;19.26;56.68;101503.00;5189774;28;20042;-70
2022/08/13 02:54:27;;;;;;;;;;;;;;;20.00;51.66;101517.66;5192973;28;20026;-68
2022/08/13 02:56:58;;;;;;;8.40;3.58;;;;;;;19.22;57.36;101514.97;5188044;28;19936;-69
2022/08/13 02:59:30;;;;;;;8.27;4.05;;;;;;;19.24;57.34;101520.91;5189050;28;20022;-68
2022/08/13 03:02:02;;;;;;;7.93;3.50;;;;;;;19.17;57.74;101518.13;5191483;28;20197;-69
2022/08/13 03:04:34;;;;;;;9.10;3.50;;;;;;;19.13;57.52;101524.75;5189381;28;20034;-68
2022/08/13 03:07:05;;;;;;;9.38;3.90;;;;;;;19.08;57.94;101511.16;5189570;28;20026;-68
2022/08/13 03:09:37;;;;;;;7.57;4.38;;;;;;;19.03;58.31;101514.34;5178724;28;20018;-68
2022/08/13 03:12:10;;;;;;;9.15;4.25;;;;;;;19.03;58.66;101513.50;5193059;28;20484;-67
2022/08/13 03:14:42;;;;;;;8.35;3.92;;;;;;;18.89;59.68;101515.03;5189231;28;20026;-70
2022/08/13 03:17:13;;;;;;;9.03;4.60;;;;;;;18.93;59.88;101514.50;5190036;28;20022;-69
2022/08/13 03:19:44;;;;;;;9.32;3.88;;;;;;;18.92;59.47;101520.81;5191738;28;20034;-68
2022/08/13 03:22:16;;;;;;;8.87;4.27;;;;;;;18.91;60.09;101515.69;5189495;28;20033;-68
2022/08/13 03:24:47;;;;;;;10.38;4.43;;;;;;;18.78;59.89;101510.06;5189564;28;20022;-69
2022/08/13 03:27:18;;;;;;;11.65;4.90;;;;;;;18.80;60.02;101511.56;5193169;28;20026;-68
2022/08/13 03:29:53;;;;;;;8.00;4.10;;;;;;;18.72;60.56;101516.88;5191965;28;20018;-72
2022/08/13 03:32:25;;;;;;;13.25;4.10;;;;;;;18.68;61.15;101516.34;5191362;28;20081;-68
2022/08/13 03:34:56;;;;;;;7.47;4.13;;;;;;;18.71;60.82;101510.75;5189263;28;20026;-69
2022/08/13 03:37:28;;;;;;;5.97;4.03;;;;;;;18.69;60.70;101518.00;5189342;28;20493;-68
2022/08/13 03:39:59;;;;;;;9.70;3.88;;;;;;;18.59;61.13;101517.31;5189621;28;20034;-68
2022/08/13 03:42:30;;;;;;;6.93;4.47;;;;;;;18.58;61.96;101526.28;5193063;28;20026;-69
2022/08/13 03:45:03;;;;;;;7.30;4.10;;;;;;;18.61;61.85;101519.84;5190772;28;20026;-68
2022/08/13 03:47:35;;;;;;;8.65;4.70;;;;;;;18.47;62.61;101510.69;5188380;28;20030;-69
2022/08/13 03:50:08;;;;;;;9.83;4.73;;;;;;;18.44;62.60;101503.91;5185633;28;20034;-68
2022/08/13 03:52:42;;;;;;;13.25;4.10;;;;;;;18.44;62.84;101517.16;5192621;28;20023;-70
2022/08/13 03:55:15;;;;;;;5.85;4.00;;;;;;;18.40;62.16;101513.19;5189787;28;20068;-70
2022/08/13 03:57:46;;;;;;;;;;;;;;;19.14;56.74;101516.63;5188592;28;20026;-68
2022/08/13 04:00:17;;;;;;;10.10;4.00;;;;;;;18.39;62.97;101510.72;5190037;28;19921;-69
2022/08/13 04:02:50;;;;;;;6.60;4.53;;;;;;;18.32;62.94;101502.56;5191039;28;20397;-68
2022/08/13 04:05:22;;;;;;;8.45;4.05;;;;;;;18.30;62.88;101503.75;5190884;28;20065;-70
2022/08/13 04:07:53;;;;;;;8.27;4.63;;;;;;;18.26;64.30;101508.56;5194971;28;20022;-67
2022/08/13 04:10:25;;;;;;;8.38;4.20;;;;;;;18.29;63.76;101516.16;5194867;28;20026;-68
2022/08/13 04:12:56;;;;;;;11.23;4.38;;;;;;;18.24;63.87;101514.00;5196166;28;20089;-69
2022/08/13 04:15:27;;;;;;;6.75;4.10;;;;;;;18.20;64.12;101510.03;5194337;28;20433;-71
2022/08/13 04:17:58;;;;;;;7.38;4.05;;;;;;;18.22;63.54;101505.41;5192794;28;20031;-68
2022/08/13 04:20:31;;;;;;;8.33;4.37;;;;;;;18.18;63.40;101511.16;5194192;28;20650;-72
2022/08/13 04:23:08;;;;;;;8.68;4.10;;;;;;;18.19;62.99;101507.53;5192729;28;20281;-69
2022/08/13 04:25:40;;;;;;;8.95;4.40;;;;;;;18.10;63.82;101519.13;5191311;28;20023;-70
2022/08/13 04:28:14;;;;;;;9.65;4.35;;;;;;;18.17;64.45;101520.13;5195178;28;20022;-71
2022/08/13 04:30:46;;;;;;;8.80;4.60;;;;;;;18.16;63.21;101519.28;5193464;28;20033;-69
2022/08/13 04:33:17;;;;;;;6.85;3.88;;;;;;;18.17;63.25;101520.94;5193620;28;20030;-69
2022/08/13 04:35:48;;;;;;;5.03;3.47;;;;;;;18.24;63.39;101529.91;5194399;28;20088;-70
2022/08/13 04:38:20;;;;;;;9.35;3.95;;;;;;;18.18;62.97;101522.63;5190700;28;20386;-70
2022/08/13 04:40:51;;;;;;;7.18;3.95;;;;;;;18.24;61.77;101519.31;5198065;28;20033;-70
2022/08/13 04:43:23;;;;;;;8.30;3.85;;;;;;;18.19;63.09;101521.63;5193839;28;20030;-70
2022/08/13 04:45:58;;;;;;;7.15;4.03;;;;;;;18.32;61.02;101510.53;5194223;28;20033;-69
2022/08/13 04:48:33;;;;;;;6.82;4.00;;;;;;;18.28;61.28;101526.94;5194708;28;20082;-69
2022/08/13 04:51:05;;;;;;;6.80;3.63;;;;;;;18.29;61.53;101521.47;5191493;28;20034;-69
2022/08/13 04:53:37;;;;;;;5.70;3.75;;;;;;;18.31;61.78;101522.13;5193951;28;20022;-71
2022/08/13 04:56:09;;;;;;;12.18;4.00;;;;;;;18.36;61.43;101524.28;5190214;28;20022;-69
2022/08/13 04:58:40;;;;;;;8.40;4.23;;;;;;;18.39;61.57;101521.31;5194558;28;20033;-69
2022/08/13 05:01:12;;;;;;;8.05;3.60;;;;;;;18.37;60.52;101518.84;5203702;23;20051;-71
2022/08/13 05:03:45;;;;;;;9.10;4.03;;;;;;;18.39;60.83;101524.78;5211030;28;20044;-70
2022/08/13 05:06:18;;;;;;;7.22;3.70;;;;;;;18.42;61.60;101518.34;5212912;28;20030;-70
2022/08/13 05:08:51;;;;;;;7.50;4.13;;;;;;;18.44;61.63;101526.94;5215901;28;20096;-70
2022/08/13 05:11:22;;;;;;;6.57;4.50;;;;;;;18.46;60.57;101527.63;5213426;28;20025;-70
2022/08/13 05:13:54;;;;;;;8.50;4.25;;;;;;;18.48;61.66;101523.78;5205643;28;20657;-70
2022/08/13 05:16:25;;;;;;;7.22;4.05;;;;;;;18.59;60.83;101527.94;5208575;28;20050;-70
2022/08/13 05:18:56;;;;;;;6.90;3.80;;;;;;;18.63;60.43;101525.78;5208675;28;20034;-71
2022/08/13 05:21:28;;;;;;;6.40;4.38;;;;;;;18.67;60.60;101527.13;5207723;28;20606;-71
2022/08/13 05:23:59;;;;;;;9.48;4.10;;;;;;;18.80;60.31;101530.13;5211599;28;20045;-71
2022/08/13 05:26:31;;;;;;;7.60;3.78;;;;;;;18.85;60.65;101535.75;5210369;28;20019;-70
2022/08/13 05:29:05;;;;;;;5.72;3.50;;;;;;;18.80;59.00;101526.66;5207841;28;20691;-71
2022/08/13 05:31:36;;;;;;;9.55;4.18;;;;;;;18.81;59.62;101537.09;5208373;28;20485;-71
2022/08/13 05:34:07;;;;;;;7.10;4.22;;;;;;;18.87;58.34;101536.44;5208685;28;20018;-70
2022/08/13 05:36:45;;;;;;;7.63;4.30;;;;;;;18.93;58.86;101537.59;5208844;28;20022;-70
2022/08/13 05:39:16;;;;;;;10.18;4.15;;;;;;;18.89;59.77;101529.13;5208367;28;20029;-70
2022/08/13 05:41:49;;;;;;;7.50;3.90;;;;;;;18.98;59.97;101531.75;5208699;28;20029;-70
2022/08/13 05:44:22;;;;;;;5.93;3.88;;;;;;;19.05;59.95;101533.56;5210369;28;20049;-71
2022/08/13 05:46:53;;;;;;;6.30;4.00;;;;;;;19.04;60.11;101541.72;5204321;28;20033;-70
2022/08/13 05:49:24;;;;;;;7.57;3.90;;;;;;;19.11;58.73;101530.25;5206573;28;20420;-71
2022/08/13 05:51:57;;;;;;;11.25;4.35;;;;;;;19.14;60.57;101543.19;5208248;28;20029;-70
2022/08/13 05:54:31;;;;;;;;;;;;;;;19.81;56.83;101542.00;5204631;28;20373;-71
2022/08/13 05:57:03;;;;;;;6.50;4.10;;;;;;;19.32;59.78;101539.50;5206969;28;20012;-70
2022/08/13 06:05:15;;;;;;;6.95;4.07;;;;;;;19.41;62.04;101531.34;5209175;28;20038;-71
2022/08/13 06:07:46;;;;;;;5.10;3.53;;;;;;;19.58;59.57;101528.59;5205692;28;20102;-71
2022/08/13 06:10:19;;;;;;;5.90;3.70;;;;;;;19.65;60.97;101533.09;5205781;28;20567;-71
2022/08/13 06:12:50;;;;;;;7.20;3.70;;;;;;;19.80;58.96;101540.34;5207792;28;20104;-71
2022/08/13 06:15:23;;;;;;;5.23;3.43;;;;;;;19.77;59.71;101528.22;5209114;28;20507;-71
2022/08/13 06:17:54;;;;;;;6.60;3.60;;;;;;;19.89;59.48;101536.66;5209696;28;20160;-71
2022/08/13 06:20:27;;;;;;;7.57;3.85;;;;;;;20.06;57.55;101535.53;5206256;28;20112;-71
2022/08/13 06:22:59;;;;;;;5.50;3.90;;;;;;;20.20;55.75;101527.81;5206621;28;20029;-71
2022/08/13 06:25:32;;;;;;;6.20;3.30;;;;;;;20.29;57.27;101532.91;5203132;28;20109;-71
2022/08/13 06:28:10;;;;;;;8.35;3.28;;;;;;;20.49;55.64;101527.09;5200316;28;20043;-71
2022/08/13 06:30:43;;;;;;;8.15;3.50;;;;;;;20.67;53.80;101529.47;5210004;28;20032;-71
2022/08/13 06:33:17;;;;;;;8.68;3.92;;;;;;;20.78;51.18;101521.88;5205833;28;20013;-71
2022/08/13 06:35:54;;;;;;;4.78;3.35;;;;;;;20.96;52.58;101534.06;5205417;28;20389;-71
2022/08/13 06:38:36;;;;;;;9.07;3.95;;;;;;;21.14;51.62;101532.69;5199177;28;20026;-71
2022/08/13 06:41:09;;;;;;;6.78;3.47;;;;;;;21.36;51.96;101527.47;5205467;28;20026;-71
2022/08/13 06:43:47;;;;;;;5.07;3.30;;;;;;;21.45;49.47;101530.88;5207135;28;20031;-72
2022/08/13 06:46:29;;;;;;;8.35;3.65;;;;;;;21.73;50.30;101537.19;5205818;28;20405;-72
2022/08/13 06:49:02;;;;;;;7.00;3.60;;;;;;;21.84;49.79;101535.88;5201569;28;20448;-72
2022/08/13 06:51:34;;;;;;;8.55;3.65;;;;;;;21.91;49.52;101541.31;5203437;28;20543;-72
2022/08/13 06:54:08;;;;;;;8.33;3.77;;;;;;;22.04;48.67;101536.91;5204264;28;20074;-71
2022/08/13 06:56:39;;;;;;;7.68;3.20;;;;;;;22.19;48.89;101531.56;5202031;28;20037;-72
2022/08/13 06:59:13;;;;;;;4.60;3.20;;;;;;;22.41;46.71;101537.75;5203638;28;20034;-71
2022/08/13 07:01:47;;;;;;;9.95;3.00;;;;;;;22.50;46.16;101533.94;5207153;28;20053;-71
2022/08/13 07:04:19;;;;;;;7.38;3.38;;;;;;;22.61;46.56;101542.44;5209117;28;20167;-71
2022/08/13 07:06:52;;;;;;;6.15;2.88;;;;;;;22.80;46.35;101534.56;5208063;28;20068;-70
2022/08/13 07:09:23;;;;;;;7.82;3.00;;;;;;;22.94;44.71;101540.88;5209094;28;20060;-71
2022/08/13 07:11:55;;;;;;;7.20;2.77;;;;;;;23.11;44.45;101545.91;5201901;28;20018;-71
2022/08/13 07:14:26;;;;;;;4.70;2.43;;;;;;;23.21;43.30;101541.88;5208420;28;20380;-71
2022/08/13 07:16:59;;;;;;;5.63;2.83;;;;;;;23.31;43.10;101534.34;5202512;28;20121;-71
2022/08/13 07:19:30;;;;;;;5.45;2.85;;;;;;;23.52;43.97;101545.94;5208948;28;20029;-71
2022/08/13 07:22:01;;;;;;;4.60;2.70;;;;;;;23.60;42.12;101545.81;5207314;28;20038;-71
2022/08/13 07:24:33;;;;;;;3.93;2.87;;;;;;;23.72;42.51;101544.22;5206875;28;20097;-70
2022/08/13 07:27:07;;;;;;;6.00;2.50;;;;;;;23.99;42.29;101539.78;5205378;28;20081;-70
2022/08/13 07:29:38;;;;;;;7.57;3.35;;;;;;;24.06;41.20;101536.31;5201643;28;20384;-70
2022/08/13 07:32:09;;;;;;;6.23;2.63;;;;;;;24.21;40.33;101536.97;5202942;28;20032;-70
2022/08/13 07:34:41;;;;;;;7.17;2.60;;;;;;;24.49;41.56;101547.53;5207577;28;20443;-72
2022/08/13 07:37:20;;;;;;;7.60;2.67;;;;;;;24.68;41.15;101545.88;5204289;28;20465;-70
2022/08/13 07:39:52;;;;;;;5.30;2.50;;;;;;;24.69;40.90;101545.66;5209394;28;20043;-71
2022/08/13 07:42:23;;;;;;;6.40;2.50;;;;;;;24.85;40.86;101547.13;5211405;28;20021;-70
2022/08/13 07:44:54;;;;;;;5.17;2.47;;;;;;;24.88;39.12;101545.88;5204724;28;20030;-71
2022/08/13 07:47:26;;;;;;;5.17;2.13;;;;;;;25.04;38.87;101547.28;5209588;28;20029;-71
2022/08/13 07:50:01;;;;;;;9.10;2.47;;;;;;;25.18;38.31;101551.63;5209311;28;20412;-71
2022/08/13 07:52:32;;;;;;;4.25;1.98;;;;;;;25.22;38.37;101551.00;5209894;28;20924;-71
2022/08/13 07:55:07;;;;;;;4.83;1.80;;;;;;;25.49;38.27;101545.53;5203711;28;20026;-71
2022/08/13 07:57:43;;;;;;;8.25;2.30;;;;;;;25.71;38.29;101544.22;5209926;28;20045;-72
2022/08/13 08:00:21;;;;;;;3.33;1.77;;;;;;;25.84;36.00;101550.63;5207773;28;20030;-71
2022/08/13 08:03:01;;;;;;;6.38;1.80;;;;;;;26.21;38.13;101546.25;5199310;28;20054;-71
2022/08/13 08:05:35;;;;;;;5.75;1.95;;;;;;;26.23;35.71;101546.06;5207137;28;20085;-72
2022/08/13 08:08:10;;;;;;;6.65;1.50;;;;;;;26.32;35.59;101552.78;5202943;28;20053;-72
2022/08/13 08:10:41;;;;;;;3.67;1.70;;;;;;;26.39;36.51;101546.34;5203362;28;20121;-71
2022/08/13 08:13:13;;;;;;;3.83;1.80;;;;;;;26.58;35.15;101544.56;5198373;28;20104;-71
2022/08/13 08:15:44;;;;;;;6.35;2.25;;;;;;;26.66;35.58;101551.53;5207233;28;20023;-72
2022/08/13 08:18:16;;;;;;;4.20;1.67;;;;;;;26.78;35.68;101555.13;5210972;28;20057;-72
2022/08/13 08:20:48;;;;;;;3.97;1.70;;;;;;;26.92;35.01;101547.78;5208172;28;20031;-72
2022/08/13 08:23:22;;;;;;;3.83;1.80;;;;;;;27.09;33.77;101551.56;5210922;28;20041;-72
2022/08/13 08:25:57;;;;;;;4.53;2.20;;;;;;;27.17;35.08;101556.66;5206431;28;20033;-72
2022/08/13 08:28:30;;;;;;;3.17;1.73;;;;;;;27.38;34.75;101549.19;5201720;28;20128;-72
2022/08/13 08:31:04;;;;;;;3.95;2.20;;;;;;;27.44;33.83;101552.88;5203792;28;20057;-71
2022/08/13 08:33:35;;;;;;;6.28;1.60;;;;;;;27.47;34.63;101555.13;5211167;28;20030;-71
2022/08/13 08:36:07;;;;;;;8.93;2.17;;;;;;;27.82;33.20;101552.63;5208852;28;20476;-72
2022/08/13 08:44:36;;;;;;;3.15;1.83;;;;;;;28.05;32.37;101559.97;5204549;28;20124;-72
2022/08/13 08:47:08;;;;;;;6.78;1.73;;;;;;;28.27;32.22;101560.28;5205709;28;20022;-72
2022/08/13 08:49:40;;;;;;;4.22;1.80;;;;;;;28.38;32.73;101562.22;5211342;28;20456;-72
2022/08/13 08:52:12;;;;;;;4.78;1.50;;;;;;;28.56;32.33;101556.75;5208840;28;20069;-72
2022/08/13 08:54:45;;;;;;;3.65;1.73;;;;;;;28.60;31.91;101559.78;5201902;28;20030;-77
2022/08/13 08:57:18;;;;;;;7.22;1.60;;;;;;;28.83;31.57;101551.72;5207531;28;20445;-74
2022/08/13 08:59:49;;;;;;;8.65;1.60;;;;;;;28.96;31.06;101557.94;5204962;28;20412;-74
2022/08/13 09:02:24;;;;;;;6.07;1.77;;;;;;;29.05;30.48;101556.53;5207317;28;20117;-75
2022/08/13 09:04:56;;;;;;;6.25;1.40;;;;;;;29.07;31.42;101547.16;5202999;28;20044;-75
2022/08/13 09:07:33;;;;;;;5.55;1.60;;;;;;;29.26;30.60;101555.13;5209139;28;20030;-82
2022/08/13 09:10:05;;;;;;;2.85;1.67;;;;;;;29.40;30.93;101548.41;5205568;28;20034;-73
2022/08/13 09:12:41;;;;;;;9.02;1.70;;;;;;;29.49;30.59;101548.84;5202087;28;20025;-76
2022/08/13 09:15:21;;;;;;;4.47;1.60;;;;;;;29.50;30.37;101540.50;5197207;28;20034;-76
2022/08/13 09:17:53;;;;;;;3.97;1.58;;;;;;;29.66;29.89;101538.94;5202379;28;20026;-76
2022/08/13 09:20:28;;;;;;;4.43;2.05;;;;;;;29.77;30.54;101543.47;5206266;28;20022;-76
2022/08/13 09:23:08;;;;;;;5.30;1.50;;;;;;;30.06;29.31;101535.38;5196284;28;20595;-72
2022/08/13 09:25:43;;;;;;;5.25;1.73;;;;;;;29.98;28.82;101541.16;5202875;28;20076;-72
2022/08/13 09:28:23;;;;;;;2.40;1.30;;;;;;;30.25;29.44;101538.69;5201106;28;20385;-71
2022/08/13 09:30:54;;;;;;;4.75;2.03;;;;;;;30.28;28.86;101536.31;5202406;28;20026;-71
2022/08/13 09:33:31;;;;;;;4.10;1.40;;;;;;;30.52;28.73;101545.09;5204978;28;20048;-71
2022/08/13 09:36:03;;;;;;;4.50;1.40;;;;;;;30.54;28.72;101534.84;5204222;28;20574;-71
2022/08/13 09:38:36;;;;;;;4.18;1.45;;;;;;;30.68;28.41;101531.81;5212620;28;20057;-71
2022/08/13 09:41:20;;;;;;;4.53;1.60;;;;;;;30.85;27.91;101546.16;5202674;28;20119;-72
2022/08/13 09:43:52;;;;;;;5.47;1.38;;;;;;;30.91;27.08;101539.78;5196255;28;20029;-71
2022/08/13 09:46:23;;;;;;;5.57;1.40;;;;;;;31.05;26.74;101532.09;5200642;28;20061;-71
2022/08/13 09:48:55;;;;;;;6.40;1.47;;;;;;;31.20;26.83;101540.41;5206065;28;20424;-71
2022/08/13 09:51:31;;;;;;;2.85;1.30;;;;;;;31.11;26.19;101533.00;5205889;28;20696;-72
2022/08/13 09:54:09;;;;;;;5.30;1.33;;;;;;;31.34;26.74;101546.31;5206241;28;20784;-72
2022/08/13 09:56:41;;;;;;;3.10;1.45;;;;;;;31.30;25.69;101528.09;5198381;28;20435;-72
2022/08/13 09:59:13;;;;;;;5.95;1.15;;;;;;;31.63;25.86;101530.69;5202004;28;20037;-72
2022/08/13 10:01:44;;;;;;;3.33;1.30;;;;;;;31.78;26.27;101526.47;5203391;28;20498;-72
2022/08/13 10:04:18;;;;;;;2.35;0.90;;;;;;;31.88;24.72;101526.63;5198883;28;20037;-74
2022/08/13 10:06:50;;;;;;;4.93;1.27;;;;;;;31.97;23.82;101525.06;5200819;28;20030;-73
2022/08/13 10:09:21;;;;;;;3.67;1.40;;;;;;;31.84;24.41;101515.44;5202556;28;20481;-73
2022/08/13 10:11:55;;;;;;;4.53;1.00;;;;;;;31.93;23.56;101508.50;5202509;28;20037;-73
2022/08/13 10:14:27;;;;;;;3.30;0.95;;;;;;;31.94;23.12;101514.78;5205223;28;20409;-74
2022/08/13 10:16:58;;;;;;;1.70;1.00;;;;;;;32.25;24.60;101502.28;5203541;28;20034;-73
2022/08/13 10:19:29;;;;;;;3.00;0.83;;;;;;;32.14;23.03;101511.41;5204806;28;20030;-73
2022/08/13 10:22:00;;;;;;;1.97;1.03;;;;;;;32.23;22.71;101507.94;5205382;28;20026;-73
2022/08/13 10:24:32;;;;;;;5.87;1.20;;;;;;;32.54;22.77;101502.78;5206301;28;20022;-73
2022/08/13 10:27:03;;;;;;;3.65;1.13;;;;;;;32.58;23.43;101501.22;5207165;28;20026;-73
2022/08/13 10:29:34;;;;;;;2.35;1.10;;;;;;;32.67;22.48;101507.75;5200148;28;20030;-73
2022/08/13 10:32:06;;;;;;;2.17;1.07;;;;;;;32.56;22.58;101489.78;5205364;28;20465;-73
2022/08/13 10:34:37;;;;;;;1.80;1.15;;;;;;;32.84;22.61;101498.63;5205681;28;20500;-71
2022/08/13 10:37:09;;;;;;;2.60;1.00;;;;;;;32.76;21.82;101497.22;5203515;28;20036;-71
2022/08/13 10:39:41;;;;;;;4.00;1.00;;;;;;;32.70;22.79;101501.81;5208506;28;20022;-71
2022/08/13 10:42:12;;;;;;;3.20;0.93;;;;;;;32.97;21.89;101500.09;5203250;28;20064;-71
2022/08/13 10:44:43;;;;;;;4.40;1.00;;;;;;;32.97;21.84;101500.09;5200082;28;20144;-71
2022/08/13 10:47:15;;;;;;;1.97;1.03;;;;;;;32.81;21.40;101491.84;5199593;28;20021;-71
2022/08/13 10:49:49;;;;;;;3.50;1.23;;;;;;;32.82;21.56;101509.75;5202159;28;20180;-71
2022/08/13 10:52:20;;;;;;;2.58;1.00;;;;;;;32.98;21.80;101496.28;5199998;28;20472;-71
2022/08/13 10:54:52;;;;;;;1.85;1.02;;;;;;;33.03;21.13;101486.25;5197726;28;20148;-72
2022/08/13 10:57:23;;;;;;;2.58;0.93;;;;;;;33.20;21.70;101477.91;5202655;28;20077;-72
2022/08/13 10:59:54;;;;;;;;;;;;;;;34.01;21.36;101482.72;5202480;28;20121;-72
2022/08/13 11:02:27;;;;;;;2.33;1.00;;;;;;;33.44;21.30;101478.25;5227719;23;19929;-70
2022/08/13 11:05:00;;;;;;;2.47;0.90;;;;;;;33.35;20.80;101490.72;5231796;28;20036;-71
2022/08/13 11:07:36;;;;;;;2.72;0.80;;;;;;;33.46;21.43;101488.88;5236340;28;20021;-70
2022/08/13 11:10:08;;;;;;;2.47;0.90;;;;;;;33.32;20.47;101486.63;5236221;28;20471;-70
2022/08/13 11:12:44;;;;;;;;;;;;;;;34.33;20.94;101482.44;5233656;28;20036;-71
2022/08/13 11:15:22;;;;;;;2.85;0.90;;;;;;;33.94;21.17;101482.16;5227260;28;19924;-70
2022/08/13 11:17:54;;;;;;;2.90;0.82;;;;;;;34.05;20.91;101474.84;5225574;28;20053;-70
2022/08/13 11:20:27;;;;;;;;;;;;;;;34.75;20.36;101477.75;5226092;28;20059;-72
2022/08/13 11:22:59;;;;;;;2.72;0.90;;;;;;;33.83;20.91;101477.78;5229909;28;19958;-70
2022/08/13 11:25:30;;;;;;;;;;;;;;;34.48;19.98;101476.16;5225859;28;20030;-68
2022/08/13 11:28:02;;;;;;;4.23;0.90;;;;;;;33.64;20.57;101464.75;5223940;28;19913;-71
2022/08/13 11:30:34;;;;;;;1.52;0.77;;;;;;;33.73;20.49;101464.22;5223939;28;20022;-70
2022/08/13 11:33:05;;;;;;;;;;;;;;;34.58;20.53;101462.56;5223652;28;20041;-71
2022/08/13 11:35:36;;;;;;;3.00;0.90;;;;;;;34.03;21.16;101458.81;5227833;28;19967;-71
2022/08/13 11:38:08;;;;;;;;;;;;;;;34.99;20.19;101456.16;5225183;28;20120;-73
2022/08/13 11:40:46;;;;;;;2.10;1.00;;;;;;;34.67;20.37;101456.56;5226270;28;20327;-72
2022/08/13 11:43:17;;;;;;;3.97;0.80;;;;;;;34.68;20.22;101458.19;5225835;28;20514;-68
2022/08/13 11:45:49;;;;;;;;;;;;;;;35.37;19.20;101459.25;5226810;28;20021;-69
2022/08/13 11:48:21;;;;;;;1.63;0.80;;;;;;;34.27;19.52;101455.53;5221968;28;19979;-70
2022/08/13 11:50:55;;;;;;;;;;;;;;;35.24;19.98;101450.63;5223678;28;20144;-70
2022/08/13 11:53:26;;;;;;;4.72;1.10;;;;;;;34.24;19.64;101451.44;5222761;28;20342;-70
2022/08/13 11:55:58;;;;;;;;;;;;;;;35.07;19.51;101458.31;5223597;28;20029;-70
2022/08/13 11:58:32;;;;;;;2.40;1.15;;;;;;;34.26;19.54;101452.00;5220197;28;19988;-69
2022/08/13 12:01:06;;;;;;;2.78;1.00;;;;;;;34.12;20.07;101440.03;5226560;28;20038;-70
2022/08/13 12:03:39;;;;;;;3.58;1.20;;;;;;;34.37;20.25;101450.88;5224338;28;20527;-69
2022/08/13 12:06:10;;;;;;;3.70;1.00;;;;;;;34.31;20.12;101448.44;5217715;28;20679;-71
2022/08/13 12:08:42;;;;;;;;;;;;;;;35.21;20.41;101455.81;5227216;28;20117;-69
2022/08/13 12:11:13;;;;;;;2.05;0.90;;;;;;;34.44;19.34;101441.59;5225904;28;19921;-70